• Join FlightAware (Why Join?)
  • Login
  • US Flag 
10:57AM EDT


 

Airport Tracker/Info


-or-


 

Live Flight TrackerFlight Track Log ✈ EMD24 ✈ 24-Aug-2013 ✈ KMKC - KGLD

Flight Track Log - Related Links

Times and Time Zones

All times are in EDT time to prevent confusion due to time zone crossing. See the EMD24 flight status page for this flight to view local times or setup timezone preferences in your user account.

Time Position Orientation Groundspeed Altitude Reporting Facility
EDT Latitude Longitude Course Direction KTS MPH feet Rate Location/Type
07:04PM 39.1000 -94.6333 256° West 145 167 2,500  Level Kansas City TRACON
07:05PM 39.0833 -94.7167 256° West 171 197 4,100 840 Climbing Kansas City TRACON
07:06PM 39.0833 -94.7667 270° West 210 242 4,500 1,440 Climbing Kansas City TRACON
07:07PM 39.0667 -94.8333 252° West 131 151 7,000 2,100 Climbing Kansas City TRACON
07:08PM 39.0667 -94.8667 270° West 125 144 8,500 1,500 Climbing Kansas City TRACON
07:10PM 39.0678 -94.9353 271° West 144 166 10,600 1,440 Climbing Kansas City Center
07:11PM 39.0769 -94.9956 281° West 153 176 12,100 1,320 Climbing Kansas City Center
07:12PM 39.0831 -95.0494 278° West 157 181 13,400 1,200 Climbing Kansas City Center
07:13PM 39.0878 -95.1042 276° West 161 185 14,600 1,080 Climbing Kansas City Center
07:14PM 39.0894 -95.1717 272° West 169 194 15,700 960 Climbing Kansas City Center
07:15PM 39.0917 -95.2406 272° West 179 206 16,700 900 Climbing Kansas City Center
07:16PM 39.0961 -95.3044 275° West 180 207 17,600 600 Climbing Kansas City Center
07:17PM 39.1011 -95.3717 275° West 189 217 18,000 180 Climbing Kansas City Center
07:18PM 39.1083 -95.4478 277° West 212 244 18,000  Level Kansas City Center
07:19PM 39.1156 -95.5353 276° West 225 259 18,000  Level Kansas City Center
07:20PM 39.1228 -95.6125 277° West 228 262 18,000  Level Kansas City Center
07:21PM 39.1247 -95.6919 272° West 230 265 18,000  Level Kansas City Center
07:22PM 39.1286 -95.7839 273° West 231 266 18,000  Level Kansas City Center
07:23PM 39.1336 -95.8625 275° West 231 266 18,000  Level Kansas City Center
07:24PM 39.1414 -95.9533 276° West 229 264 18,000  Level Kansas City Center
07:25PM 39.1461 -96.0322 274° West 230 265 18,000  Level Kansas City Center
07:26PM 39.1503 -96.1119 274° West 232 267 18,000  Level Kansas City Center
07:27PM 39.1561 -96.2050 275° West 233 268 18,000  Level Kansas City Center
07:28PM 39.1608 -96.2850 274° West 233 268 18,000  Level Kansas City Center
07:29PM 39.1669 -96.3775 275° West 233 268 18,000  Level Kansas City Center
07:30PM 39.1725 -96.4567 275° West 232 267 18,000  Level Kansas City Center
07:31PM 39.1778 -96.5364 275° West 232 267 18,000  Level Kansas City Center
07:32PM 39.1819 -96.6278 273° West 230 265 18,000  Level Kansas City Center
07:33PM 39.1872 -96.7061 275° West 229 264 18,000  Level Kansas City Center
07:34PM 39.1917 -96.7992 274° West 232 267 18,000  Level Kansas City Center
07:35PM 39.1953 -96.8778 273° West 230 265 18,000  Level Kansas City Center
07:36PM 39.1997 -96.9561 274° West 230 265 18,000  Level Kansas City Center
07:38PM 39.2056 -97.0489 275° West 232 267 18,000  Level Kansas City Center
07:39PM 39.2103 -97.1275 274° West 230 265 18,000  Level Kansas City Center
07:40PM 39.2161 -97.2189 275° West 231 266 18,000  Level Kansas City Center
07:41PM 39.2206 -97.2975 274° West 229 264 18,000  Level Kansas City Center
07:42PM 39.2247 -97.3758 274° West 230 265 18,000  Level Kansas City Center
07:43PM 39.2297 -97.4686 274° West 232 267 18,000  Level Kansas City Center
07:44PM 39.2328 -97.5492 273° West 234 269 18,000  Level Kansas City Center
07:45PM 39.2381 -97.6419 274° West 232 267 18,000  Level Kansas City Center
07:46PM 39.2417 -97.7192 273° West 234 269 18,000  Level Kansas City Center
07:47PM 39.2456 -97.8019 273° West 232 267 18,000  Level Kansas City Center
07:48PM 39.2500 -97.8931 274° West 230 265 18,000  Level Kansas City Center
07:49PM 39.2539 -97.9731 274° West 231 266 18,000  Level Kansas City Center
07:50PM 39.2581 -98.0669 273° West 234 269 18,000  Level Kansas City Center
07:51PM 39.2608 -98.1444 273° West 229 264 18,000  Level Kansas City Center
07:52PM 39.2656 -98.2328 274° West 231 266 18,000  Level Kansas City Center
07:53PM 39.2692 -98.3128 273° West 225 259 18,000  Level Kansas City Center
07:54PM 39.2719 -98.3944 273° West 227 261 18,000  Level Kansas City Center
07:55PM 39.2756 -98.4742 273° West 223 257 18,000  Level Kansas City Center
07:56PM 39.2794 -98.5581 273° West 225 259 18,000  Level Kansas City Center
07:57PM 39.2831 -98.6353 273° West 225 259 18,000  Level Kansas City Center
07:58PM 39.2883 -98.7264 274° West 227 261 18,000  Level Kansas City Center
07:59PM 39.2894 -98.8028 271° West 226 260 18,000  Level Kansas City Center
08:00PM 39.2936 -98.8936 273° West 227 261 18,000  Level Kansas City Center
08:01PM 39.2956 -98.9739 272° West 226 260 18,000  Level Kansas City Center
08:02PM 39.2989 -99.0533 273° West 223 257 18,000  Level Kansas City Center
08:03PM 39.3028 -99.1342 274° West 226 260 18,000  Level Kansas City Center
08:04PM 39.3061 -99.2144 273° West 225 259 18,000  Level Kansas City Center
08:05PM 39.3094 -99.2956 273° West 226 260 18,000  Level Kansas City Center
08:06PM 39.3122 -99.3775 273° West 227 261 18,000  Level Kansas City Center
08:07PM 39.3167 -99.4572 274° West 225 259 18,000  Level Kansas City Center
08:08PM 39.3178 -99.5386 271° West 226 260 18,000  Level Kansas City Center
08:09PM 39.3208 -99.6322 272° West 224 258 18,000  Level Kansas City Center
08:10PM 39.3239 -99.7106 273° West 227 261 18,000  Level Kansas City Center
08:11PM 39.3278 -99.7992 273° West 224 258 18,000  Level Kansas City Center
08:12PM 39.3297 -99.8769 272° West 225 259 18,000  Level Kansas City Center
08:13PM 39.3317 -99.9542 272° West 226 260 18,000  Level Kansas City Center
08:14PM 39.3342 -100.0450 272° West 226 260 18,000  Level Kansas City Center
08:15PM 39.3347 -100.1231 271° West 228 262 18,000  Level Kansas City Center
08:17PM 39.3378 -100.2494 272° West 230 265 18,000  Level Denver Center
08:18PM 39.3417 -100.3400 273° West 225 259 18,000  Level Denver Center
08:19PM 39.3458 -100.4333 273° West 231 266 18,000  Level Denver Center
08:20PM 39.3475 -100.5100 272° West 226 260 18,000 -180 Level Denver Center
08:21PM 39.3475 -100.5889 270° West 228 262 17,700 -420 Descending Denver Center
08:22PM 39.3483 -100.6850 271° West 236 272 17,200 -540 Descending Denver Center
08:23PM 39.3528 -100.7711 274° West 247 284 16,600 -600 Descending Denver Center
08:24PM 39.3564 -100.8694 273° West 246 283 16,100 -600 Descending Denver Center
08:25PM 39.3581 -100.9503 272° West 238 274 15,400 -840 Descending Denver Center
08:26PM 39.3567 -101.0347 269° West 242 278 14,400 -840 Descending Denver Center
08:27PM 39.3583 -101.1339 271° West 247 284 13,700 -540 Descending Denver Center
08:28PM 39.3650 -101.2125 276° West 237 273 13,300 -840 Descending Denver Center
08:29PM 39.3631 -101.3042 268° West 230 265 12,000 -1,620 Descending Denver Center
08:30PM 39.3664 -101.3881 273° West 234 269 10,100 -1,440 Descending Denver Center
08:31PM 39.3747 -101.4703 277° West 238 274 9,100 -900 Descending Denver Center
08:32PM 39.3822 -101.5339 279° West 234 269 8,300 -900 Descending Denver Center
08:33PM 39.3917 -101.6258 278° West 231 266 7,300 -1,020 Descending Denver Center
08:35PM 39.3667 -101.6833 270° West  Level FlightAware Approximate
08:42PM 39.3706 -101.6990 270° West  Level Estimated